Time;durP1;ratioP1;P1;durP2;ratioP2;P2;SDS_P1;SDS_P2;PMS_P1;PMS_P2;Temp;Humidity;BMP_temperature;BMP_pressure;BME280_temperature;BME280_humidity;BME280_pressure;Samples;Min_cycle;Max_cycle;Signal;HPM_P1;HPM_P2
2021/11/16 00:00:58;;;;;;;9.37;6.43;;;8.00;72.20;;;;;;5074635;28;20033;-80
2021/11/16 00:03:24;;;;;;;8.90;5.03;;;8.00;72.00;;;;;;5052964;28;20494;-80
2021/11/16 00:05:49;;;;;;;6.67;4.97;;;7.90;71.90;;;;;;5057766;28;20063;-80
2021/11/16 00:08:15;;;;;;;8.33;5.80;;;7.90;72.00;;;;;;5054109;28;20051;-80
2021/11/16 00:10:41;;;;;;;9.03;5.33;;;7.90;72.10;;;;;;5072886;28;20040;-80
2021/11/16 00:13:11;;;;;;;9.10;5.87;;;7.90;72.10;;;;;;5054482;28;20036;-80
2021/11/16 00:15:42;;;;;;;6.73;5.37;;;7.90;72.10;;;;;;5081230;28;20030;-81
2021/11/16 00:18:08;;;;;;;17.33;5.30;;;7.90;71.90;;;;;;5067200;28;20035;-80
2021/11/16 00:20:39;;;;;;;8.10;5.30;;;7.90;72.00;;;;;;5074372;28;20036;-80
2021/11/16 00:23:04;;;;;;;8.33;5.03;;;7.90;72.10;;;;;;5054904;28;20035;-81
2021/11/16 00:25:35;;;;;;;10.37;5.83;;;7.90;72.10;;;;;;5058117;28;20024;-81
2021/11/16 00:28:01;;;;;;;7.60;6.30;;;7.90;72.20;;;;;;5072355;28;20020;-80
2021/11/16 00:30:27;;;;;;;7.20;5.23;;;7.90;72.20;;;;;;5056898;28;20067;-80
2021/11/16 00:32:53;;;;;;;8.93;5.47;;;7.90;72.10;;;;;;5073551;28;20511;-80
2021/11/16 00:35:19;;;;;;;9.50;5.93;;;7.90;72.30;;;;;;5057780;28;20127;-80
2021/11/16 00:37:45;;;;;;;7.77;4.77;;;7.90;72.40;;;;;;5069335;28;20028;-80
2021/11/16 00:40:16;;;;;;;8.27;5.60;;;7.90;72.30;;;;;;5053629;28;20123;-81
2021/11/16 00:42:43;;;;;;;8.00;5.10;;;7.90;72.40;;;;;;5074809;28;20107;-80
2021/11/16 00:45:10;;;;;;;8.40;4.77;;;7.90;72.30;;;;;;5069168;28;20028;-80
2021/11/16 00:47:36;;;;;;;8.87;5.90;;;7.90;72.20;;;;;;5062845;28;20474;-80
2021/11/16 00:50:03;;;;;;;8.43;5.57;;;7.90;72.40;;;;;;5057613;28;20035;-80
2021/11/16 00:52:29;;;;;;;8.10;5.67;;;7.90;72.40;;;;;;5056448;28;20035;-80
2021/11/16 00:54:55;;;;;;;7.50;5.67;;;7.90;72.60;;;;;;5074673;28;20025;-80
2021/11/16 00:57:21;;;;;;;8.77;6.03;;;7.90;72.90;;;;;;5077567;28;20033;-80
2021/11/16 00:59:47;;;;;;;8.07;5.37;;;8.00;73.00;;;;;;5047467;28;20036;-80
2021/11/16 01:02:14;;;;;;;9.70;4.90;;;8.00;72.90;;;;;;5057676;28;20024;-80
2021/11/16 01:04:41;;;;;;;8.53;6.43;;;8.00;73.00;;;;;;5065505;28;20127;-80
2021/11/16 01:07:07;;;;;;;8.47;6.27;;;8.10;73.40;;;;;;5077496;28;20040;-81
2021/11/16 01:09:33;;;;;;;9.43;5.53;;;8.10;73.50;;;;;;5077755;28;20036;-80
2021/11/16 01:11:59;;;;;;;6.43;4.23;;;8.10;73.30;;;;;;5052002;28;20525;-80
2021/11/16 01:14:26;;;;;;;7.07;5.23;;;8.10;73.40;;;;;;5070420;28;20036;-80
2021/11/16 01:16:51;;;;;;;7.70;5.00;;;8.10;73.60;;;;;;5079335;28;20101;-80
2021/11/16 01:19:17;;;;;;;11.10;6.90;;;8.10;73.30;;;;;;5080929;28;20533;-80
2021/11/16 01:21:43;;;;;;;13.23;9.80;;;8.10;73.20;;;;;;5080539;28;20032;-80
2021/11/16 01:24:10;;;;;;;24.70;13.77;;;8.10;73.30;;;;;;5065800;28;20089;-80
2021/11/16 01:26:36;;;;;;;15.67;10.03;;;8.10;73.50;;;;;;5055849;28;20029;-80
2021/11/16 01:29:03;;;;;;;9.97;7.37;;;8.10;73.90;;;;;;5054587;28;20123;-80
2021/11/16 01:31:29;;;;;;;14.00;8.23;;;8.10;74.20;;;;;;5079787;28;20037;-81
2021/11/16 01:33:57;;;;;;;11.33;9.00;;;8.10;73.90;;;;;;5063447;28;20040;-81
2021/11/16 01:36:24;;;;;;;11.60;8.77;;;8.00;74.50;;;;;;5070709;28;20052;-80
2021/11/16 01:38:51;;;;;;;11.83;9.00;;;8.00;74.40;;;;;;5060311;28;20040;-81
2021/11/16 01:41:19;;;;;;;13.30;9.77;;;8.00;74.50;;;;;;5056782;28;20085;-80
2021/11/16 01:43:45;;;;;;;20.27;12.40;;;8.00;74.30;;;;;;5076319;28;20391;-81
2021/11/16 01:46:16;;;;;;;16.60;11.83;;;8.00;74.30;;;;;;5077786;28;20024;-80
2021/11/16 01:48:56;;;;;;;17.97;12.07;;;8.00;74.40;;;;;;5050263;28;20555;-80
2021/11/16 01:51:25;;;;;;;17.87;10.60;;;8.00;74.60;;;;;;5052756;28;20075;-80
2021/11/16 01:53:56;;;;;;;27.73;12.67;;;8.10;74.60;;;;;;5063318;28;20032;-80
2021/11/16 01:56:22;;;;;;;16.83;11.13;;;8.10;74.40;;;;;;5077126;28;20411;-80
2021/11/16 01:58:48;;;;;;;18.67;11.47;;;8.10;74.60;;;;;;5044583;28;20070;-80
2021/11/16 02:01:14;;;;;;;14.93;10.73;;;8.10;74.60;;;;;;5076653;28;20960;-80
2021/11/16 02:03:40;;;;;;;16.13;10.13;;;8.10;74.70;;;;;;5081055;28;20032;-80
2021/11/16 02:06:27;;;;;;;16.93;10.87;;;8.10;74.60;;;;;;5077035;28;20043;-80
2021/11/16 02:08:55;;;;;;;14.77;11.43;;;8.10;74.70;;;;;;5062822;28;20464;-80
2021/11/16 02:11:21;;;;;;;20.10;12.07;;;8.10;74.80;;;;;;5060581;28;20081;-80
2021/11/16 02:13:47;;;;;;;20.67;13.37;;;8.10;74.80;;;;;;5078532;28;20553;-80
2021/11/16 02:16:14;;;;;;;17.83;12.67;;;8.20;74.80;;;;;;5071012;28;20387;-81
2021/11/16 02:18:40;;;;;;;19.43;12.37;;;8.20;74.70;;;;;;5058955;28;20395;-81
2021/11/16 02:21:08;;;;;;;18.27;11.93;;;8.10;74.50;;;;;;5063572;28;20107;-80
2021/11/16 02:23:34;;;;;;;61.87;13.87;;;8.10;75.30;;;;;;5054797;28;20028;-80
2021/11/16 02:26:00;;;;;;;56.93;12.47;;;8.00;74.90;;;;;;5068118;28;20509;-80
2021/11/16 02:28:26;;;;;;;27.17;12.63;;;8.00;75.00;;;;;;5051714;28;20111;-80
2021/11/16 02:30:54;;;;;;;152.57;13.17;;;8.00;75.60;;;;;;5085500;28;21455;-80
2021/11/16 02:33:20;;;;;;;172.77;13.83;;;8.00;75.50;;;;;;5082611;28;20030;-80
2021/11/16 02:35:46;;;;;;;65.93;14.90;;;8.00;75.60;;;;;;5052467;28;20119;-81
2021/11/16 02:38:13;;;;;;;32.10;13.33;;;8.00;75.70;;;;;;5072312;28;20489;-80
2021/11/16 02:40:38;;;;;;;71.63;16.77;;;8.10;75.70;;;;;;5069499;28;20480;-80
2021/11/16 02:43:05;;;;;;;59.07;16.80;;;8.10;75.60;;;;;;5067885;28;20036;-80
2021/11/16 02:45:31;;;;;;;37.50;17.20;;;8.00;75.80;;;;;;5060188;28;20043;-80
2021/11/16 02:47:57;;;;;;;34.40;17.53;;;8.00;76.00;;;;;;5059446;28;20480;-81
2021/11/16 02:50:23;;;;;;;34.73;16.27;;;8.10;75.90;;;;;;5054704;28;20437;-80
2021/11/16 02:52:49;;;;;;;29.13;14.93;;;8.00;75.80;;;;;;5062737;28;20021;-80
2021/11/16 02:55:17;;;;;;;24.53;13.80;;;8.10;75.90;;;;;;5062206;28;20161;-80
2021/11/16 02:57:44;;;;;;;20.20;12.70;;;8.10;75.80;;;;;;5057701;28;21610;-81
2021/11/16 03:00:16;;;;;;;19.27;11.93;;;8.10;75.80;;;;;;5055076;28;20032;-80
2021/11/16 03:02:47;;;;;;;11.20;8.40;;;8.10;75.70;;;;;;5060573;28;20028;-81
2021/11/16 03:05:13;;;;;;;16.47;11.97;;;8.00;75.50;;;;;;5072066;28;20062;-81
2021/11/16 03:07:46;;;;;;;11.77;9.07;;;8.00;75.40;;;;;;5061783;28;21068;-80
2021/11/16 03:10:12;;;;;;;;;;;8.00;75.90;;;;;;5084466;28;20026;-80
2021/11/16 03:12:39;;;;;;;11.20;7.77;;;8.00;75.90;;;;;;5077220;28;19995;-80
2021/11/16 03:15:05;;;;;;;13.07;7.17;;;8.00;75.50;;;;;;5062279;28;20048;-80
2021/11/16 03:17:31;;;;;;;11.00;7.60;;;8.00;75.60;;;;;;5078199;28;20374;-81
2021/11/16 03:19:57;;;;;;;13.13;8.03;;;7.90;75.50;;;;;;5077033;28;20029;-80
2021/11/16 03:22:36;;;;;;;10.80;7.63;;;8.00;75.50;;;;;;5079750;28;20490;-81
2021/11/16 03:25:03;;;;;;;15.57;8.03;;;8.00;75.60;;;;;;5089134;28;20020;-80
2021/11/16 03:27:33;;;;;;;24.80;9.13;;;8.00;75.50;;;;;;5058136;28;20356;-80
2021/11/16 03:30:00;;;;;;;20.97;8.83;;;8.00;75.50;;;;;;5059370;28;20024;-80
2021/11/16 03:32:31;;;;;;;29.47;8.83;;;8.00;75.40;;;;;;5064345;28;20032;-81
2021/11/16 03:34:57;;;;;;;20.03;8.67;;;8.00;75.40;;;;;;5076716;28;20061;-80
2021/11/16 03:37:25;;;;;;;12.17;7.47;;;8.00;75.60;;;;;;5070395;28;20039;-80
2021/11/16 03:39:52;;;;;;;12.47;8.47;;;8.00;75.50;;;;;;5074206;28;20025;-81
2021/11/16 03:42:18;;;;;;;13.40;8.50;;;8.00;75.60;;;;;;5059839;28;20092;-80
2021/11/16 03:44:44;;;;;;;298.20;26.47;;;8.00;75.80;;;;;;5048866;28;20107;-80
2021/11/16 03:47:10;;;;;;;10.63;8.50;;;8.00;76.00;;;;;;5066053;28;20065;-81
2021/11/16 03:49:36;;;;;;;9.73;6.63;;;8.10;76.30;;;;;;5061581;28;20020;-81
2021/11/16 03:52:02;;;;;;;10.07;7.60;;;8.10;76.10;;;;;;5077345;28;20091;-80
2021/11/16 03:54:28;;;;;;;10.00;7.27;;;8.10;75.80;;;;;;5072102;28;20097;-81
2021/11/16 03:57:00;;;;;;;9.47;7.07;;;8.10;75.60;;;;;;5054159;28;20108;-81
2021/11/16 03:59:26;;;;;;;9.30;6.07;;;8.10;75.70;;;;;;5054493;28;20036;-81
2021/11/16 04:01:52;;;;;;;8.73;6.23;;;8.10;75.50;;;;;;5067969;28;20077;-81
2021/11/16 04:04:19;;;;;;;12.87;5.57;;;8.10;75.60;;;;;;5073588;28;20445;-81
2021/11/16 04:06:46;;;;;;;11.50;5.83;;;8.10;75.60;;;;;;5061758;28;20024;-81
2021/11/16 04:09:11;;;;;;;10.67;7.17;;;8.10;75.40;;;;;;5064320;28;20648;-81
2021/11/16 04:11:37;;;;;;;11.10;7.00;;;8.10;75.30;;;;;;5057335;28;20115;-81
2021/11/16 04:14:03;;;;;;;11.13;7.47;;;8.10;75.50;;;;;;5070012;28;20021;-81
2021/11/16 04:16:29;;;;;;;8.80;6.93;;;8.10;75.50;;;;;;5080278;28;20028;-80
2021/11/16 04:18:55;;;;;;;8.90;6.47;;;8.10;75.40;;;;;;5068729;28;20029;-81
2021/11/16 04:21:21;;;;;;;11.37;6.37;;;8.10;75.40;;;;;;5074442;28;20190;-81
2021/11/16 04:23:46;;;;;;;10.80;6.97;;;8.10;75.30;;;;;;5054036;28;20021;-81
2021/11/16 04:26:12;;;;;;;11.53;6.93;;;8.10;75.50;;;;;;5074977;28;20442;-81
2021/11/16 04:28:38;;;;;;;9.53;6.80;;;8.10;76.00;;;;;;5045335;28;20582;-81
2021/11/16 04:31:04;;;;;;;10.43;7.03;;;8.10;75.40;;;;;;5057406;28;20476;-81
2021/11/16 04:33:30;;;;;;;13.63;7.83;;;8.10;75.50;;;;;;5039960;28;20120;-80
2021/11/16 04:35:56;;;;;;;11.70;8.30;;;8.10;75.40;;;;;;5059692;28;20025;-80
2021/11/16 04:38:22;;;;;;;18.33;8.80;;;8.10;75.60;;;;;;5070281;28;20089;-81
2021/11/16 04:40:52;;;;;;;18.80;8.83;;;8.10;75.50;;;;;;5071929;28;20066;-80
2021/11/16 04:43:21;;;;;;;10.83;7.57;;;8.10;75.70;;;;;;5048589;28;20523;-80
2021/11/16 04:45:52;;;;;;;12.73;8.50;;;8.10;75.90;;;;;;5068427;28;20047;-81
2021/11/16 04:48:30;;;;;;;10.23;7.63;;;8.10;76.00;;;;;;5058986;28;20027;-80
2021/11/16 05:04:38;;;;;;;9.93;6.93;;;8.20;75.60;;;;;;5076917;28;20123;-80
2021/11/16 05:07:18;;;;;;;16.50;7.93;;;8.20;75.70;;;;;;5056367;28;20054;-81
2021/11/16 05:09:49;;;;;;;13.80;8.33;;;8.20;75.80;;;;;;5049991;28;20024;-81
2021/11/16 05:12:16;;;;;;;48.13;10.27;;;8.20;76.00;;;;;;5092886;28;20066;-80
2021/11/16 05:14:42;;;;;;;36.17;10.63;;;8.20;75.80;;;;;;5080432;28;20089;-80
2021/11/16 05:17:08;;;;;;;22.93;10.07;;;8.20;75.80;;;;;;5055256;28;20415;-81
2021/11/16 05:19:33;;;;;;;18.50;9.97;;;8.20;76.00;;;;;;5055082;28;20057;-80
2021/11/16 05:21:59;;;;;;;20.60;11.83;;;8.20;76.00;;;;;;5071578;28;20394;-80
2021/11/16 05:24:25;;;;;;;24.27;12.33;;;8.20;76.20;;;;;;5066845;28;20035;-80
2021/11/16 05:26:52;;;;;;;18.13;12.13;;;8.20;76.30;;;;;;5078868;28;20425;-80
2021/11/16 05:29:19;;;;;;;14.87;9.87;;;8.20;76.50;;;;;;5054370;28;20036;-80
2021/11/16 05:31:45;;;;;;;24.90;9.30;;;8.20;76.40;;;;;;5053620;28;20495;-80
2021/11/16 05:34:11;;;;;;;11.87;7.77;;;8.20;76.30;;;;;;5058906;28;20025;-81
2021/11/16 05:36:37;;;;;;;20.13;8.73;;;8.20;76.30;;;;;;5079062;28;20028;-80
2021/11/16 05:39:04;;;;;;;17.10;9.23;;;8.20;76.20;;;;;;5072577;28;20094;-80
2021/11/16 05:41:29;;;;;;;22.07;11.57;;;8.10;76.30;;;;;;5076504;28;20125;-80
2021/11/16 05:43:55;;;;;;;24.10;11.37;;;8.10;76.30;;;;;;5056584;28;20463;-81
2021/11/16 05:46:22;;;;;;;33.20;13.60;;;8.10;76.40;;;;;;5089630;28;20032;-81
2021/11/16 05:48:51;;;;;;;107.33;13.90;;;8.10;76.60;;;;;;5055868;28;20025;-81
2021/11/16 05:51:19;;;;;;;24.97;13.03;;;8.10;76.60;;;;;;5064334;28;20127;-81
2021/11/16 05:53:50;;;;;;;28.63;12.97;;;8.20;76.70;;;;;;5059246;28;20035;-81
2021/11/16 05:56:19;;;;;;;28.70;13.67;;;8.10;76.60;;;;;;5081342;28;20017;-80
2021/11/16 05:58:45;;;;;;;28.07;13.47;;;8.10;76.70;;;;;;5061208;28;20059;-80
2021/11/16 06:01:11;;;;;;;43.87;14.07;;;8.10;76.70;;;;;;5071464;28;20104;-81
2021/11/16 06:03:36;;;;;;;27.97;14.33;;;8.10;76.80;;;;;;5064697;28;20017;-80
2021/11/16 06:06:02;;;;;;;33.23;13.80;;;8.00;77.00;;;;;;5086925;28;20048;-81
2021/11/16 06:08:29;;;;;;;34.97;12.77;;;8.10;77.20;;;;;;5054237;28;20459;-80
2021/11/16 06:10:56;;;;;;;20.50;12.33;;;8.10;77.20;;;;;;5061362;28;20028;-81
2021/11/16 06:13:23;;;;;;;56.10;11.83;;;8.20;77.00;;;;;;5062808;28;20033;-80
2021/11/16 06:15:50;;;;;;;25.10;12.77;;;8.20;76.90;;;;;;5048238;28;20089;-80
2021/11/16 06:18:19;;;;;;;39.47;11.97;;;8.10;76.90;;;;;;5046863;28;20171;-80
2021/11/16 06:20:46;;;;;;;20.93;12.03;;;8.10;77.20;;;;;;5054659;28;20047;-81
2021/11/16 06:23:12;;;;;;;23.57;12.37;;;8.10;77.10;;;;;;5055077;28;20070;-81
2021/11/16 06:25:39;;;;;;;22.70;13.00;;;8.10;77.10;;;;;;5072565;28;20025;-79
2021/11/16 06:28:05;;;;;;;32.27;14.70;;;8.10;77.00;;;;;;5044353;28;20431;-80
2021/11/16 06:30:31;;;;;;;26.87;14.63;;;8.20;77.10;;;;;;5035151;28;20048;-80
2021/11/16 06:32:57;;;;;;;28.63;14.47;;;8.20;77.20;;;;;;5053503;28;20032;-80
2021/11/16 06:35:23;;;;;;;54.37;16.10;;;8.10;77.10;;;;;;5072611;28;20433;-81
2021/11/16 06:37:49;;;;;;;24.27;13.77;;;8.20;77.00;;;;;;5069601;28;20020;-81
2021/11/16 06:40:17;;;;;;;26.37;14.23;;;8.20;77.10;;;;;;5057520;28;20031;-81
2021/11/16 06:42:44;;;;;;;25.27;14.97;;;8.20;77.10;;;;;;5072198;28;20074;-80
2021/11/16 06:45:11;;;;;;;25.73;12.77;;;8.20;77.10;;;;;;5072187;28;20025;-81
2021/11/16 06:47:37;;;;;;;18.83;11.10;;;8.30;77.00;;;;;;5071122;28;20098;-81
2021/11/16 06:50:03;;;;;;;18.43;12.00;;;8.30;77.10;;;;;;5036369;28;20106;-80
2021/11/16 06:52:32;;;;;;;19.83;11.57;;;8.20;77.00;;;;;;5034229;28;20028;-81
2021/11/16 06:54:58;;;;;;;21.53;11.23;;;8.20;77.50;;;;;;5039137;28;20028;-80
2021/11/16 06:57:27;;;;;;;23.53;11.60;;;8.20;77.10;;;;;;5048360;28;20506;-81
2021/11/16 06:59:54;;;;;;;20.70;10.23;;;8.20;77.10;;;;;;5051468;28;20032;-80
2021/11/16 07:02:24;;;;;;;19.60;11.67;;;8.10;76.90;;;;;;5067197;28;20450;-80
2021/11/16 07:04:50;;;;;;;19.63;11.87;;;8.10;77.10;;;;;;5053304;28;20472;-81
2021/11/16 07:07:16;;;;;;;29.10;13.70;;;8.20;77.30;;;;;;5052004;28;21145;-81
2021/11/16 07:09:43;;;;;;;26.63;14.10;;;8.20;77.10;;;;;;5051763;28;20029;-80
2021/11/16 07:12:24;;;;;;;32.43;12.43;;;8.20;77.00;;;;;;5052388;28;20494;-81
2021/11/16 07:14:51;;;;;;;24.57;11.90;;;8.20;77.00;;;;;;5055967;28;20031;-80
2021/11/16 07:17:18;;;;;;;30.23;14.57;;;8.20;77.00;;;;;;5035083;28;20380;-80
2021/11/16 07:19:46;;;;;;;24.33;12.37;;;8.20;77.00;;;;;;5050089;28;20115;-81
2021/11/16 07:22:13;;;;;;;21.47;11.00;;;8.30;77.00;;;;;;5058746;28;20017;-80
2021/11/16 07:24:46;;;;;;;23.70;11.63;;;8.30;77.00;;;;;;5069711;28;20017;-81
2021/11/16 07:27:13;;;;;;;38.33;12.05;;;8.20;76.90;;;;;;5053354;28;20048;-80
2021/11/16 07:29:42;;;;;;;21.23;12.10;;;8.20;76.90;;;;;;5065735;28;20078;-81
2021/11/16 07:32:13;;;;;;;18.33;11.50;;;8.20;77.10;;;;;;5045600;28;20818;-80
2021/11/16 07:34:40;;;;;;;26.03;12.27;;;8.20;77.10;;;;;;5068825;28;20025;-81
2021/11/16 07:37:18;;;;;;;27.07;12.83;;;8.30;77.00;;;;;;5073784;28;20052;-81
2021/11/16 07:39:51;;;;;;;23.70;12.90;;;8.30;77.00;;;;;;5068980;28;20135;-81
2021/11/16 07:42:18;;;;;;;27.52;15.13;;;8.30;76.90;;;;;;5049666;28;20047;-81
2021/11/16 07:45:11;;;;;;;29.13;16.47;;;8.30;76.90;;;;;;5068958;28;20032;-81
2021/11/16 07:47:41;;;;;;;28.63;14.05;;;8.40;77.20;;;;;;5048405;28;20139;-81
2021/11/16 07:50:09;;;;;;;28.27;14.30;;;8.50;76.80;;;;;;5061003;28;20021;-79
2021/11/16 07:52:35;;;;;;;26.63;14.27;;;8.50;76.70;;;;;;5075542;28;20044;-80
2021/11/16 07:55:01;;;;;;;26.47;14.47;;;8.50;76.60;;;;;;5068543;28;20021;-80
2021/11/16 07:57:26;;;;;;;30.87;15.57;;;8.40;76.70;;;;;;5072206;28;20067;-81
2021/11/16 07:59:55;;;;;;;31.33;14.93;;;8.50;76.70;;;;;;5043371;28;20028;-81
2021/11/16 08:02:36;;;;;;;28.13;15.13;;;8.50;76.50;;;;;;5074643;28;20024;-81
2021/11/16 08:05:32;;;;;;;32.07;14.80;;;8.50;76.60;;;;;;5065920;28;20098;-81
2021/11/16 08:08:09;;;;;;;26.20;15.17;;;8.60;76.80;;;;;;5072210;28;20040;-81
2021/11/16 08:10:38;;;;;;;22.93;14.70;;;8.60;76.60;;;;;;5054006;28;20030;-81
2021/11/16 08:13:14;;;;;;;29.43;14.10;;;8.60;76.50;;;;;;5091420;28;20379;-81
2021/11/16 08:15:40;;;;;;;26.57;12.20;;;8.50;76.50;;;;;;5067053;28;20025;-82
2021/11/16 08:18:12;;;;;;;20.77;11.53;;;8.50;76.50;;;;;;5056388;28;20037;-82
2021/11/16 08:20:38;;;;;;;22.63;11.63;;;8.50;76.70;;;;;;5046238;28;20028;-82
2021/11/16 08:23:05;;;;;;;23.80;12.63;;;8.50;76.70;;;;;;5070395;28;20013;-81
2021/11/16 08:25:40;;;;;;;25.47;13.90;;;8.60;77.00;;;;;;5036599;28;20025;-82
2021/11/16 08:28:09;;;;;;;32.33;13.30;;;8.60;76.90;;;;;;5046386;28;20036;-82
2021/11/16 08:30:35;;;;;;;36.40;13.63;;;8.60;76.70;;;;;;5056334;28;20043;-82
2021/11/16 08:33:03;;;;;;;30.37;13.40;;;8.50;76.60;;;;;;5043847;28;20473;-81
2021/11/16 08:35:31;;;;;;;27.07;13.70;;;8.50;76.90;;;;;;5042340;28;20116;-81
2021/11/16 08:38:07;;;;;;;29.47;16.40;;;8.60;77.20;;;;;;5061202;28;20119;-81
2021/11/16 08:40:45;;;;;;;29.63;15.00;;;8.70;77.10;;;;;;5067853;28;20066;-81
2021/11/16 08:43:15;;;;;;;28.27;16.63;;;8.70;77.10;;;;;;5083394;28;20040;-81
2021/11/16 08:45:47;;;;;;;34.53;17.40;;;8.70;77.60;;;;;;5061631;28;20024;-82
2021/11/16 08:48:21;;;;;;;37.10;18.90;;;8.80;77.00;;;;;;5074234;28;20025;-81
2021/11/16 08:50:50;;;;;;;36.60;16.87;;;8.80;76.80;;;;;;5054269;28;20115;-80
2021/11/16 08:53:32;;;;;;;32.60;16.33;;;8.90;76.70;;;;;;5053038;28;20031;-81
2021/11/16 08:56:04;;;;;;;31.40;17.10;;;8.90;77.00;;;;;;5052065;28;20032;-82
2021/11/16 08:58:30;;;;;;;30.13;18.50;;;8.90;76.80;;;;;;5049209;28;20476;-81
2021/11/16 09:01:03;;;;;;;34.77;18.50;;;9.00;76.70;;;;;;5053145;28;20037;-81
2021/11/16 09:03:35;;;;;;;30.07;18.10;;;9.00;76.70;;;;;;5052697;28;20036;-82
2021/11/16 09:06:05;;;;;;;32.10;20.63;;;9.00;76.80;;;;;;5064589;28;20353;-81
2021/11/16 09:08:34;;;;;;;32.73;18.60;;;9.10;76.70;;;;;;5082472;28;20278;-81
2021/11/16 09:11:09;;;;;;;35.30;18.30;;;9.10;76.60;;;;;;5049302;28;20036;-81
2021/11/16 09:13:35;;;;;;;36.20;18.63;;;9.10;76.40;;;;;;5072137;28;20036;-81
2021/11/16 09:16:15;;;;;;;31.23;19.40;;;9.10;76.40;;;;;;5072638;28;20077;-81
2021/11/16 09:18:46;;;;;;;37.43;20.97;;;9.10;76.30;;;;;;5054245;28;20032;-81
2021/11/16 09:21:17;;;;;;;29.87;18.87;;;9.10;76.40;;;;;;5075949;28;20071;-81
2021/11/16 09:23:52;;;;;;;29.07;17.47;;;9.10;76.10;;;;;;5051916;28;20056;-81
2021/11/16 09:29:22;;;;;;;33.30;19.30;;;9.00;76.50;;;;;;5072518;28;20020;-81
2021/11/16 09:32:06;;;;;;;34.37;19.33;;;9.00;76.60;;;;;;5069881;28;20039;-81
2021/11/16 09:34:44;;;;;;;34.13;17.43;;;9.00;76.40;;;;;;5071664;28;20028;-81
2021/11/16 09:37:22;;;;;;;29.60;16.23;;;9.00;76.30;;;;;;5053853;28;20111;-81
2021/11/16 09:39:56;;;;;;;29.30;16.33;;;9.10;76.40;;;;;;5061015;28;20090;-81
2021/11/16 09:42:24;;;;;;;23.40;15.13;;;9.10;76.10;;;;;;5072870;28;20037;-82
2021/11/16 09:44:53;;;;;;;19.23;12.57;;;9.10;76.00;;;;;;5072511;28;20025;-81
2021/11/16 09:47:25;;;;;;;19.13;11.27;;;9.10;76.00;;;;;;5049933;28;20427;-82
2021/11/16 09:49:51;;;;;;;20.58;12.75;;;9.10;76.10;;;;;;5057893;28;20483;-81
2021/11/16 09:52:18;;;;;;;18.20;12.03;;;9.20;75.90;;;;;;5061698;28;20089;-81
2021/11/16 09:55:10;;;;;;;17.83;11.20;;;9.10;75.60;;;;;;5050962;28;20037;-81
2021/11/16 09:57:46;;;;;;;17.83;12.03;;;9.20;75.80;;;;;;5070723;28;20040;-81
2021/11/16 10:00:26;;;;;;;18.53;11.63;;;9.20;75.40;;;;;;5067647;28;20459;-82
2021/11/16 10:03:00;;;;;;;18.13;12.80;;;9.20;75.30;;;;;;5046723;28;20023;-81
2021/11/16 10:05:27;;;;;;;19.67;13.27;;;9.10;75.10;;;;;;5069555;28;20021;-81
2021/11/16 10:07:58;;;;;;;20.07;13.63;;;9.00;75.40;;;;;;5065226;28;20025;-81
2021/11/16 10:10:27;;;;;;;19.20;12.87;;;9.00;75.60;;;;;;5072759;28;20023;-82
2021/11/16 10:12:55;;;;;;;21.20;13.23;;;9.00;75.80;;;;;;5053824;28;20035;-81
2021/11/16 10:15:25;;;;;;;20.30;13.17;;;9.10;75.80;;;;;;5060392;28;20471;-81
2021/11/16 10:17:51;;;;;;;21.17;13.40;;;9.10;75.70;;;;;;5055102;28;20111;-81
2021/11/16 10:20:25;;;;;;;21.93;13.63;;;9.10;75.70;;;;;;5051750;28;20056;-81
2021/11/16 10:22:54;;;;;;;23.40;13.17;;;9.10;75.70;;;;;;5053861;28;20431;-81
2021/11/16 10:25:26;;;;;;;22.00;14.23;;;9.20;75.80;;;;;;5089186;28;20046;-81
2021/11/16 10:27:54;;;;;;;18.42;13.32;;;9.20;75.50;;;;;;5058501;28;20056;-81
2021/11/16 10:30:20;;;;;;;18.37;12.30;;;9.20;75.50;;;;;;5059379;28;20039;-81
2021/11/16 10:33:08;;;;;;;20.73;13.07;;;9.30;75.50;;;;;;5061277;28;21526;-81
2021/11/16 10:35:39;;;;;;;28.60;16.53;;;9.30;75.40;;;;;;5066380;28;20055;-81
2021/11/16 10:38:08;;;;;;;25.20;16.63;;;9.40;75.40;;;;;;5052700;28;20031;-82
2021/11/16 10:40:34;;;;;;;25.43;16.87;;;9.50;75.50;;;;;;5077969;28;20025;-81
2021/11/16 10:43:03;;;;;;;28.30;17.97;;;9.50;75.30;;;;;;5051668;28;20044;-82
2021/11/16 10:45:31;;;;;;;29.80;18.77;;;9.50;75.30;;;;;;5069490;28;20070;-81
2021/11/16 10:48:00;;;;;;;29.53;19.80;;;9.60;75.40;;;;;;5048556;28;20028;-81
2021/11/16 10:50:29;;;;;;;30.83;18.93;;;9.60;75.30;;;;;;5066359;28;20059;-81
2021/11/16 10:53:21;;;;;;;34.37;18.17;;;9.70;74.90;;;;;;5049940;28;20094;-81
2021/11/16 10:55:57;;;;;;;28.17;17.97;;;9.70;74.80;;;;;;5069393;28;20037;-81
2021/11/16 10:58:32;;;;;;;25.27;16.83;;;9.70;75.00;;;;;;5052695;28;20055;-81
2021/11/16 11:01:07;;;;;;;24.27;16.23;;;9.80;75.00;;;;;;5034365;28;20025;-81
2021/11/16 11:03:40;;;;;;;24.97;15.43;;;9.90;75.00;;;;;;5066289;28;20020;-81
2021/11/16 11:06:07;;;;;;;22.23;15.20;;;9.90;74.60;;;;;;5052656;28;20029;-81
2021/11/16 11:08:41;;;;;;;25.53;15.97;;;9.90;74.50;;;;;;5051916;28;20378;-81
2021/11/16 11:11:14;;;;;;;31.60;14.47;;;9.90;74.40;;;;;;5066486;28;20070;-82
2021/11/16 11:13:40;;;;;;;23.53;15.47;;;9.90;74.30;;;;;;5066709;28;20029;-82
2021/11/16 11:16:13;;;;;;;24.30;15.00;;;9.80;74.30;;;;;;5068945;28;20351;-82
2021/11/16 11:18:42;;;;;;;22.90;15.17;;;9.80;74.60;;;;;;5068902;28;20028;-82
2021/11/16 11:21:22;;;;;;;23.47;14.43;;;9.80;74.60;;;;;;5067625;28;20107;-81
2021/11/16 11:23:51;;;;;;;22.13;14.97;;;9.70;74.50;;;;;;5046492;28;20104;-81
2021/11/16 11:26:45;;;;;;;19.67;13.63;;;9.70;74.60;;;;;;5057353;28;20060;-82
2021/11/16 11:29:37;;;;;;;24.17;15.63;;;9.70;74.90;;;;;;5055909;28;20034;-82
2021/11/16 11:32:20;;;;;;;21.77;14.20;;;9.80;74.60;;;;;;5071713;28;20035;-81
2021/11/16 11:35:11;;;;;;;22.43;16.50;;;9.90;74.60;;;;;;5056109;28;20050;-81
2021/11/16 11:37:42;;;;;;;27.70;17.13;;;9.90;74.40;;;;;;5067667;28;20024;-81
2021/11/16 11:40:12;;;;;;;24.50;15.87;;;10.00;74.20;;;;;;5071525;28;20025;-82
2021/11/16 11:42:39;;;;;;;25.37;16.67;;;10.00;74.10;;;;;;5088906;28;20044;-81
2021/11/16 11:45:23;;;;;;;22.43;15.83;;;10.10;73.90;;;;;;5068495;28;20025;-82
2021/11/16 11:48:00;;;;;;;20.33;14.80;;;10.10;73.60;;;;;;5067804;28;20574;-81
2021/11/16 11:50:25;;;;;;;25.87;15.87;;;10.00;73.80;;;;;;5054279;28;20371;-82
2021/11/16 11:52:52;;;;;;;20.73;14.57;;;10.00;73.80;;;;;;5058763;28;20033;-82
2021/11/16 11:55:19;;;;;;;21.60;14.70;;;10.00;73.80;;;;;;5053929;28;20081;-81
2021/11/16 11:57:45;;;;;;;19.97;13.87;;;10.00;73.90;;;;;;5056423;28;20024;-82
2021/11/16 12:00:12;;;;;;;18.77;12.70;;;10.00;73.90;;;;;;5085460;28;20030;-81
2021/11/16 12:02:39;;;;;;;20.50;12.33;;;10.10;73.80;;;;;;5058088;28;20082;-81
2021/11/16 12:05:06;;;;;;;18.80;12.47;;;10.10;73.50;;;;;;5067040;28;20204;-82
2021/11/16 12:07:32;;;;;;;20.13;14.50;;;10.20;73.50;;;;;;5041432;28;20025;-81
2021/11/16 12:09:58;;;;;;;22.73;14.03;;;10.30;73.20;;;;;;5069115;28;20376;-81
2021/11/16 12:12:24;;;;;;;21.97;16.40;;;10.30;73.10;;;;;;5053482;28;20495;-81
2021/11/16 12:14:59;;;;;;;19.90;14.70;;;10.30;73.00;;;;;;5058170;28;20082;-82
2021/11/16 12:17:30;;;;;;;21.90;16.00;;;10.20;73.00;;;;;;5061542;28;20029;-81
2021/11/16 12:19:56;;;;;;;23.77;16.33;;;10.20;73.10;;;;;;5054111;28;20046;-82
2021/11/16 12:22:26;;;;;;;21.27;15.43;;;10.30;73.10;;;;;;5075553;28;20024;-81
2021/11/16 12:25:16;;;;;;;26.87;17.87;;;10.30;72.90;;;;;;5060535;28;20039;-83
2021/11/16 12:27:42;;;;;;;22.77;16.70;;;10.30;72.70;;;;;;5074876;28;20736;-81
2021/11/16 12:30:09;;;;;;;24.47;17.37;;;10.40;72.70;;;;;;5059842;28;20027;-81
2021/11/16 12:32:37;;;;;;;21.23;16.30;;;10.40;72.70;;;;;;5074899;28;20028;-82
2021/11/16 12:35:16;;;;;;;25.23;15.33;;;10.40;72.50;;;;;;5059908;28;20116;-81
2021/11/16 12:37:56;;;;;;;22.30;16.10;;;10.40;72.50;;;;;;5052124;28;20074;-81
2021/11/16 12:40:34;;;;;;;22.60;16.63;;;10.40;72.30;;;;;;5042545;28;20028;-82
2021/11/16 12:43:20;;;;;;;24.40;16.70;;;10.40;72.60;;;;;;5075525;28;20055;-81
2021/11/16 12:45:48;;;;;;;25.40;17.90;;;10.40;72.50;;;;;;5056519;28;20082;-83
2021/11/16 12:48:17;;;;;;;26.70;16.30;;;10.50;72.30;;;;;;5088918;28;20048;-82
2021/11/16 12:51:08;;;;;;;22.87;17.00;;;10.50;72.50;;;;;;5056615;28;20107;-81
2021/11/16 12:54:02;;;;;;;25.50;17.37;;;10.40;72.30;;;;;;5046117;28;20039;-82
2021/11/16 12:56:45;;;;;;;24.07;15.83;;;10.30;72.20;;;;;;5036795;28;20029;-82
2021/11/16 12:59:13;;;;;;;20.98;14.18;;;10.30;72.60;;;;;;5069376;28;20027;-82
2021/11/16 13:01:49;;;;;;;22.57;15.07;;;10.30;72.70;;;;;;5056587;28;20028;-82
2021/11/16 13:04:18;;;;;;;20.50;16.07;;;10.30;72.30;;;;;;5071870;28;20095;-82
2021/11/16 13:07:17;;;;;;;18.50;13.53;;;10.20;72.50;;;;;;5063298;28;20013;-82
2021/11/16 13:10:03;;;;;;;19.30;14.90;;;10.20;72.80;;;;;;5063414;28;20035;-82